Time;durP1;ratioP1;P1;durP2;ratioP2;P2;SDS_P1;SDS_P2;PMS_P1;PMS_P2;Temp;Humidity;BMP_temperature;BMP_pressure;BME280_temperature;BME280_humidity;BME280_pressure;Samples;Min_cycle;Max_cycle;Signal;HPM_P1;HPM_P2
2021/08/19 00:01:48;;;;;;;9.75;5.50;;;;;;;;;;4978518;28;20035;-70
2021/08/19 00:04:15;;;;;;;12.93;5.93;;;;;;;;;;4976925;28;20077;-69
2021/08/19 00:06:41;;;;;;;12.93;4.68;;;;;;;;;;4978204;28;20363;-72
2021/08/19 00:09:07;;;;;;;9.80;5.25;;;;;;;;;;4978188;28;20057;-69
2021/08/19 00:11:34;;;;;;;13.82;5.95;;;;;;;;;;4977734;28;20030;-69
2021/08/19 00:14:00;;;;;;;11.52;5.70;;;;;;;;;;4978091;28;20026;-70
2021/08/19 00:16:26;;;;;;;11.50;5.38;;;;;;;;;;4978025;28;20025;-71
2021/08/19 00:18:53;;;;;;;8.48;5.05;;;;;;;;;;4976721;28;20464;-70
2021/08/19 00:21:19;;;;;;;8.52;4.97;;;;;;;;;;4977895;28;20038;-71
2021/08/19 00:23:45;;;;;;;12.77;5.50;;;;;;;;;;4976555;28;20027;-71
2021/08/19 00:26:12;;;;;;;10.98;5.90;;;;;;;;;;4977837;28;20467;-72
2021/08/19 00:28:38;;;;;;;10.63;5.53;;;;;;;;;;4977850;28;20054;-72
2021/08/19 00:31:05;;;;;;;10.57;5.15;;;;;;;;;;4977199;28;20034;-72
2021/08/19 00:33:31;;;;;;;11.63;5.13;;;;;;;;;;4976546;28;20050;-71
2021/08/19 00:35:57;;;;;;;12.02;5.97;;;;;;;;;;4977667;28;20054;-72
2021/08/19 00:38:23;;;;;;;11.57;5.75;;;;;;;;;;4976464;28;20442;-72
2021/08/19 00:40:50;;;;;;;14.75;5.88;;;;;;;;;;4976304;28;20031;-71
2021/08/19 00:43:16;;;;;;;9.60;5.05;;;;;;;;;;4977538;28;20050;-71
2021/08/19 00:45:42;;;;;;;12.13;4.95;;;;;;;;;;4976179;28;20122;-71
2021/08/19 00:48:08;;;;;;;12.93;5.13;;;;;;;;;;4977683;28;20046;-70
2021/08/19 00:50:34;;;;;;;17.55;5.40;;;;;;;;;;4977376;28;20026;-71
2021/08/19 00:53:01;;;;;;;9.43;5.70;;;;;;;;;;4976036;28;20065;-72
2021/08/19 00:55:28;;;;;;;11.88;5.28;;;;;;;;;;4977342;28;20050;-70
2021/08/19 00:57:57;;;;;;;9.75;5.50;;;;;;;;;;4977274;28;20470;-69
2021/08/19 01:00:23;;;;;;;10.80;5.10;;;;;;;;;;4977296;28;20150;-70
2021/08/19 01:02:53;;;;;;;11.95;5.90;;;;;;;;;;4977220;28;20027;-70
2021/08/19 01:05:24;;;;;;;13.38;5.85;;;;;;;;;;4977208;28;20041;-69
2021/08/19 01:07:50;;;;;;;9.18;5.45;;;;;;;;;;4977058;28;20030;-69
2021/08/19 01:10:16;;;;;;;10.50;5.47;;;;;;;;;;4974736;28;20033;-70
2021/08/19 01:12:44;;;;;;;7.60;5.28;;;;;;;;;;4975759;28;20046;-72
2021/08/19 01:15:10;;;;;;;10.43;6.03;;;;;;;;;;4976991;28;20031;-70
2021/08/19 01:17:37;;;;;;;11.63;5.20;;;;;;;;;;4975629;28;20026;-71
2021/08/19 01:20:03;;;;;;;19.20;5.93;;;;;;;;;;4976950;28;20505;-70
2021/08/19 01:22:30;;;;;;;10.02;5.13;;;;;;;;;;4977108;28;20122;-70
2021/08/19 01:24:56;;;;;;;7.60;5.28;;;;;;;;;;4975521;28;20018;-70
2021/08/19 01:27:23;;;;;;;12.07;5.75;;;;;;;;;;4975466;28;20375;-70
2021/08/19 01:29:50;;;;;;;10.98;5.22;;;;;;;;;;4976763;28;20078;-71
2021/08/19 01:32:16;;;;;;;9.35;4.93;;;;;;;;;;4976602;28;20505;-71
2021/08/19 01:34:46;;;;;;;11.00;5.30;;;;;;;;;;4976652;28;20157;-69
2021/08/19 01:37:12;;;;;;;10.82;4.90;;;;;;;;;;4976618;28;20027;-71
2021/08/19 01:39:39;;;;;;;10.80;5.40;;;;;;;;;;4975318;28;20023;-70
2021/08/19 01:42:05;;;;;;;8.05;4.85;;;;;;;;;;4976185;28;20496;-69
2021/08/19 01:44:32;;;;;;;9.60;5.25;;;;;;;;;;4975184;28;20038;-71
2021/08/19 01:46:59;;;;;;;6.50;4.78;;;;;;;;;;4975062;28;20467;-70
2021/08/19 01:49:29;;;;;;;10.82;5.13;;;;;;;;;;4976381;28;20065;-73
2021/08/19 01:51:55;;;;;;;9.43;4.93;;;;;;;;;;4976261;28;20450;-69
2021/08/19 01:54:25;;;;;;;9.85;5.32;;;;;;;;;;4976500;28;20375;-70
2021/08/19 01:56:52;;;;;;;11.73;6.32;;;;;;;;;;4976462;28;20029;-70
2021/08/19 01:59:18;;;;;;;12.63;5.93;;;;;;;;;;4974886;28;20114;-71
2021/08/19 02:01:44;;;;;;;15.88;6.15;;;;;;;;;;4975856;28;20161;-73
2021/08/19 02:04:10;;;;;;;13.02;5.70;;;;;;;;;;4976026;28;20375;-72
2021/08/19 02:06:37;;;;;;;14.15;5.80;;;;;;;;;;4974748;28;20621;-70
2021/08/19 02:09:04;;;;;;;12.73;5.72;;;;;;;;;;4976033;28;20638;-71
2021/08/19 02:11:30;;;;;;;12.63;6.05;;;;;;;;;;4975890;28;20035;-70
2021/08/19 02:13:56;;;;;;;13.05;5.82;;;;;;;;;;4974629;28;20031;-69
2021/08/19 02:16:23;;;;;;;16.15;6.13;;;;;;;;;;4975811;28;20027;-71
2021/08/19 02:18:50;;;;;;;12.35;6.03;;;;;;;;;;4975819;28;20059;-71
2021/08/19 02:21:16;;;;;;;11.10;6.15;;;;;;;;;;4975614;28;20030;-71
2021/08/19 02:23:42;;;;;;;9.35;6.35;;;;;;;;;;4974392;28;20034;-70
2021/08/19 02:26:08;;;;;;;12.35;5.65;;;;;;;;;;4975658;28;20461;-71
2021/08/19 02:28:35;;;;;;;13.90;6.28;;;;;;;;;;4975613;28;20105;-70
2021/08/19 02:31:01;;;;;;;10.75;5.97;;;;;;;;;;4975335;28;20034;-70
2021/08/19 02:33:29;;;;;;;10.25;5.72;;;;;;;;;;4975267;28;20027;-69
2021/08/19 02:35:56;;;;;;;16.52;5.72;;;;;;;;;;4975197;28;20117;-68
2021/08/19 02:38:22;;;;;;;14.23;5.70;;;;;;;;;;4975441;28;20092;-66
2021/08/19 02:40:48;;;;;;;10.45;6.00;;;;;;;;;;4973921;28;20121;-72
2021/08/19 02:43:14;;;;;;;17.00;6.22;;;;;;;;;;4975347;28;20018;-71
2021/08/19 02:45:40;;;;;;;10.55;5.85;;;;;;;;;;4975326;28;20027;-72
2021/08/19 02:48:07;;;;;;;13.30;5.50;;;;;;;;;;4975239;28;20495;-69
2021/08/19 02:50:33;;;;;;;13.88;6.25;;;;;;;;;;4973955;28;20130;-71
2021/08/19 02:52:59;;;;;;;15.60;6.28;;;;;;;;;;4975186;28;20045;-70
2021/08/19 02:55:26;;;;;;;14.38;6.20;;;;;;;;;;4975161;28;20029;-67
2021/08/19 02:57:52;;;;;;;16.73;5.80;;;;;;;;;;4973780;28;20479;-72
2021/08/19 03:00:19;;;;;;;9.18;5.47;;;;;;;;;;4973535;28;20078;-69
2021/08/19 03:02:45;;;;;;;16.65;6.20;;;;;;;;;;4973698;28;20030;-69
2021/08/19 03:05:11;;;;;;;15.38;6.28;;;;;;;;;;4973672;28;20035;-68
2021/08/19 03:07:38;;;;;;;10.05;6.10;;;;;;;;;;4974915;28;20023;-68
2021/08/19 03:10:05;;;;;;;14.00;5.72;;;;;;;;;;4973669;28;20374;-71
2021/08/19 03:12:31;;;;;;;9.38;5.00;;;;;;;;;;4973212;28;20062;-71
2021/08/19 03:14:57;;;;;;;9.15;5.57;;;;;;;;;;4974809;28;20030;-70
2021/08/19 03:17:23;;;;;;;16.65;5.53;;;;;;;;;;4974771;28;20117;-70
2021/08/19 03:19:50;;;;;;;10.50;5.65;;;;;;;;;;4974781;28;20106;-69
2021/08/19 03:22:16;;;;;;;9.88;5.35;;;;;;;;;;4973409;28;20122;-69
2021/08/19 03:24:42;;;;;;;15.52;6.22;;;;;;;;;;4974645;28;20105;-72
2021/08/19 03:27:10;;;;;;;11.98;6.50;;;;;;;;;;4974550;28;20078;-70
2021/08/19 03:29:36;;;;;;;11.80;6.07;;;;;;;;;;4974570;28;20030;-71
2021/08/19 03:32:03;;;;;;;11.45;6.57;;;;;;;;;;4972265;28;20451;-72
2021/08/19 03:34:29;;;;;;;18.30;7.15;;;;;;;;;;4974496;28;20069;-71
2021/08/19 03:36:55;;;;;;;11.50;6.38;;;;;;;;;;4973215;28;20576;-72
2021/08/19 03:39:26;;;;;;;14.23;7.22;;;;;;;;;;4973148;28;20071;-71
2021/08/19 03:41:52;;;;;;;18.35;6.40;;;;;;;;;;4974515;28;20051;-71
2021/08/19 03:44:18;;;;;;;11.90;6.25;;;;;;;;;;4974137;28;20102;-68
2021/08/19 03:46:44;;;;;;;17.40;6.97;;;;;;;;;;4974380;28;20034;-67
2021/08/19 03:49:11;;;;;;;14.98;6.43;;;;;;;;;;4974318;28;20102;-68
2021/08/19 03:51:37;;;;;;;10.43;6.20;;;;;;;;;;4972792;28;20031;-69
2021/08/19 03:54:03;;;;;;;17.10;6.70;;;;;;;;;;4972957;28;20471;-68
2021/08/19 03:56:32;;;;;;;33.42;8.93;;;;;;;;;;4973037;28;20454;-68
2021/08/19 03:58:58;;;;;;;17.80;7.20;;;;;;;;;;4973189;28;20371;-68
2021/08/19 04:01:25;;;;;;;20.02;7.50;;;;;;;;;;4972979;28;20026;-70
2021/08/19 04:03:51;;;;;;;18.10;6.72;;;;;;;;;;4974184;28;20073;-72
2021/08/19 04:06:18;;;;;;;25.77;7.78;;;;;;;;;;4972873;28;20088;-71
2021/08/19 04:08:44;;;;;;;20.30;7.85;;;;;;;;;;4974134;28;20051;-69
2021/08/19 04:11:12;;;;;;;16.60;7.43;;;;;;;;;;4974012;28;20122;-68
2021/08/19 04:13:41;;;;;;;18.33;6.57;;;;;;;;;;4974384;28;20102;-71
2021/08/19 04:16:08;;;;;;;15.80;6.93;;;;;;;;;;4974093;28;20023;-71
2021/08/19 04:18:34;;;;;;;13.98;6.63;;;;;;;;;;4972794;28;20027;-71
2021/08/19 04:21:04;;;;;;;23.25;6.97;;;;;;;;;;4972839;28;20027;-70
2021/08/19 04:23:30;;;;;;;16.30;6.07;;;;;;;;;;4974030;28;20023;-71
2021/08/19 04:25:56;;;;;;;19.92;6.97;;;;;;;;;;4972777;28;20380;-68
2021/08/19 04:28:23;;;;;;;18.27;6.70;;;;;;;;;;4973989;28;20058;-69
2021/08/19 04:30:49;;;;;;;14.43;6.90;;;;;;;;;;4973947;28;20037;-70
2021/08/19 04:33:15;;;;;;;13.60;6.38;;;;;;;;;;4972452;28;20441;-68
2021/08/19 04:35:42;;;;;;;14.95;7.05;;;;;;;;;;4973692;28;20399;-70
2021/08/19 04:38:08;;;;;;;29.92;8.57;;;;;;;;;;4973882;28;20062;-70
2021/08/19 04:40:34;;;;;;;34.45;8.07;;;;;;;;;;4972639;28;20026;-69
2021/08/19 04:43:01;;;;;;;28.40;7.97;;;;;;;;;;4973285;28;20125;-71
2021/08/19 04:45:27;;;;;;;26.98;8.40;;;;;;;;;;4977540;28;20081;-71
2021/08/19 04:47:53;;;;;;;23.30;7.30;;;;;;;;;;4976203;28;20117;-70
2021/08/19 04:50:19;;;;;;;15.80;7.00;;;;;;;;;;4977528;28;20058;-69
2021/08/19 04:52:46;;;;;;;17.55;6.88;;;;;;;;;;4977385;28;20110;-70
2021/08/19 04:55:12;;;;;;;16.17;6.47;;;;;;;;;;4976044;28;20051;-68
2021/08/19 04:57:38;;;;;;;17.25;7.03;;;;;;;;;;4977337;28;20106;-68
2021/08/19 05:00:05;;;;;;;13.30;7.50;;;;;;;;;;4977247;28;20073;-67
2021/08/19 05:02:31;;;;;;;16.85;7.05;;;;;;;;;;4977294;28;20158;-69
2021/08/19 05:04:57;;;;;;;13.80;7.07;;;;;;;;;;4977165;28;20097;-71
2021/08/19 05:07:26;;;;;;;11.88;6.55;;;;;;;;;;4977150;28;20427;-71
2021/08/19 05:09:52;;;;;;;13.10;6.88;;;;;;;;;;4975794;28;20030;-71
2021/08/19 05:12:18;;;;;;;13.02;7.55;;;;;;;;;;4977012;28;20162;-69
2021/08/19 05:14:44;;;;;;;17.50;7.60;;;;;;;;;;4977010;28;20018;-70
2021/08/19 05:17:11;;;;;;;20.67;7.85;;;;;;;;;;4976955;28;20255;-71
2021/08/19 05:19:37;;;;;;;16.38;7.57;;;;;;;;;;4976844;28;20106;-71
2021/08/19 05:22:03;;;;;;;16.50;8.23;;;;;;;;;;4976646;28;20142;-70
2021/08/19 05:24:29;;;;;;;16.17;8.52;;;;;;;;;;4976874;28;20027;-71
2021/08/19 05:26:55;;;;;;;20.08;8.30;;;;;;;;;;4976504;28;20109;-71
2021/08/19 05:29:22;;;;;;;18.40;8.80;;;;;;;;;;4976479;28;20379;-70
2021/08/19 05:31:48;;;;;;;16.83;7.65;;;;;;;;;;4991644;28;20047;-70
2021/08/19 05:34:14;;;;;;;16.45;7.88;;;;;;;;;;4996088;28;20108;-71
2021/08/19 05:36:41;;;;;;;16.60;7.25;;;;;;;;;;4995608;28;20065;-70
2021/08/19 05:39:07;;;;;;;20.73;7.93;;;;;;;;;;4995904;28;20018;-72
2021/08/19 05:41:34;;;;;;;14.52;7.38;;;;;;;;;;4995921;28;20394;-71
2021/08/19 05:44:00;;;;;;;19.13;7.53;;;;;;;;;;4995845;28;20101;-72
2021/08/19 05:46:26;;;;;;;12.57;6.53;;;;;;;;;;4995786;28;20053;-70
2021/08/19 05:48:53;;;;;;;17.60;5.95;;;;;;;;;;4978231;28;20117;-71
2021/08/19 05:51:19;;;;;;;13.30;6.13;;;;;;;;;;4978121;28;20031;-68
2021/08/19 05:53:45;;;;;;;18.40;6.43;;;;;;;;;;4995879;28;20441;-66
2021/08/19 05:56:11;;;;;;;12.70;6.32;;;;;;;;;;4994777;28;20030;-67
2021/08/19 05:58:38;;;;;;;14.75;5.95;;;;;;;;;;4995338;28;20014;-67
2021/08/19 06:01:04;;;;;;;17.13;6.20;;;;;;;;;;4995575;28;20034;-67
2021/08/19 06:03:30;;;;;;;15.52;5.63;;;;;;;;;;4977994;28;20030;-68
2021/08/19 06:05:56;;;;;;;17.30;6.57;;;;;;;;;;4995162;28;20034;-69
2021/08/19 06:08:23;;;;;;;11.15;5.68;;;;;;;;;;4977864;28;20025;-66
2021/08/19 06:10:49;;;;;;;11.35;5.78;;;;;;;;;;4995024;28;20113;-66
2021/08/19 06:13:15;;;;;;;13.38;5.55;;;;;;;;;;4977801;28;20027;-65
2021/08/19 06:15:41;;;;;;;9.63;5.53;;;;;;;;;;4995236;28;20033;-65
2021/08/19 06:18:07;;;;;;;13.00;6.32;;;;;;;;;;4977760;28;20041;-67
2021/08/19 06:20:34;;;;;;;10.70;6.13;;;;;;;;;;4996317;28;20049;-65
2021/08/19 06:23:00;;;;;;;10.43;5.78;;;;;;;;;;4988771;28;20034;-65
2021/08/19 06:25:27;;;;;;;9.98;6.03;;;;;;;;;;5014349;28;20028;-68
2021/08/19 06:27:53;;;;;;;13.23;6.03;;;;;;;;;;5014201;28;20352;-64
2021/08/19 06:30:20;;;;;;;14.15;5.20;;;;;;;;;;4993680;28;20185;-66
2021/08/19 06:32:46;;;;;;;12.93;6.10;;;;;;;;;;5014052;28;20033;-66
2021/08/19 06:35:13;;;;;;;13.90;6.10;;;;;;;;;;5014291;28;20568;-67
2021/08/19 06:37:39;;;;;;;16.67;7.13;;;;;;;;;;5014727;28;20148;-69
2021/08/19 06:40:06;;;;;;;20.42;7.90;;;;;;;;;;5014382;28;20466;-67
2021/08/19 06:42:32;;;;;;;14.45;7.57;;;;;;;;;;5014430;28;20030;-68
2021/08/19 06:44:58;;;;;;;16.75;8.82;;;;;;;;;;5013853;28;20553;-71
2021/08/19 06:47:25;;;;;;;17.70;8.10;;;;;;;;;;5014239;28;20030;-70
2021/08/19 06:49:51;;;;;;;16.63;8.43;;;;;;;;;;5014268;28;20049;-68
2021/08/19 06:52:17;;;;;;;29.38;10.02;;;;;;;;;;5014194;28;20053;-69
2021/08/19 06:54:43;;;;;;;23.00;9.10;;;;;;;;;;5013860;28;20113;-69
2021/08/19 06:57:09;;;;;;;18.10;8.82;;;;;;;;;;4996437;28;20661;-70
2021/08/19 06:59:36;;;;;;;15.75;8.48;;;;;;;;;;4996185;28;20109;-68
2021/08/19 07:02:02;;;;;;;20.92;8.13;;;;;;;;;;4996431;28;20120;-70
2021/08/19 07:04:28;;;;;;;18.42;10.05;;;;;;;;;;4996350;28;20447;-69
2021/08/19 07:06:54;;;;;;;17.50;10.07;;;;;;;;;;5012729;28;20446;-69
2021/08/19 07:09:20;;;;;;;22.38;8.98;;;;;;;;;;5013669;28;20053;-70
2021/08/19 07:11:47;;;;;;;18.02;9.00;;;;;;;;;;5013822;28;20033;-70
2021/08/19 07:14:13;;;;;;;16.27;8.52;;;;;;;;;;4996209;28;20022;-70
2021/08/19 07:16:39;;;;;;;17.13;9.68;;;;;;;;;;5013510;28;20100;-70
2021/08/19 07:19:06;;;;;;;19.23;8.98;;;;;;;;;;4996115;28;20029;-70
2021/08/19 07:21:32;;;;;;;14.95;8.50;;;;;;;;;;5013694;28;20121;-69
2021/08/19 07:23:58;;;;;;;15.35;8.13;;;;;;;;;;5013877;28;20034;-72
2021/08/19 07:26:25;;;;;;;18.65;6.75;;;;;;;;;;5013595;28;20065;-70
2021/08/19 07:28:53;;;;;;;12.73;6.07;;;;;;;;;;4995902;28;20022;-72
2021/08/19 07:31:20;;;;;;;12.95;6.32;;;;;;;;;;5012976;28;20056;-69
2021/08/19 07:33:46;;;;;;;11.40;5.50;;;;;;;;;;5013540;28;20415;-70
2021/08/19 07:36:13;;;;;;;9.00;5.55;;;;;;;;;;5013722;28;20032;-69
2021/08/19 07:38:40;;;;;;;10.10;4.40;;;;;;;;;;5013207;28;20026;-69
2021/08/19 07:41:06;;;;;;;10.82;4.90;;;;;;;;;;5013678;28;20724;-71
2021/08/19 07:43:32;;;;;;;8.77;4.93;;;;;;;;;;5013471;28;20030;-69
2021/08/19 07:45:59;;;;;;;9.68;5.28;;;;;;;;;;5007282;28;20030;-70
2021/08/19 07:48:25;;;;;;;8.50;4.68;;;;;;;;;;4975962;28;20109;-70
2021/08/19 07:50:51;;;;;;;17.02;5.57;;;;;;;;;;4976167;28;20033;-69
2021/08/19 07:53:17;;;;;;;10.02;5.35;;;;;;;;;;4993472;28;20102;-70
2021/08/19 07:55:43;;;;;;;9.35;4.57;;;;;;;;;;4976160;28;20030;-67
2021/08/19 07:58:10;;;;;;;8.13;4.10;;;;;;;;;;4976186;28;20117;-68
2021/08/19 08:00:36;;;;;;;5.78;3.95;;;;;;;;;;4993500;28;20030;-70
2021/08/19 08:03:03;;;;;;;7.30;3.88;;;;;;;;;;4993475;28;20081;-68
2021/08/19 08:05:31;;;;;;;6.93;3.83;;;;;;;;;;4975969;28;20038;-69
2021/08/19 08:08:04;;;;;;;6.20;4.30;;;;;;;;;;4993561;28;20081;-69
2021/08/19 08:10:31;;;;;;;8.50;3.55;;;;;;;;;;4993409;28;20108;-70
2021/08/19 08:13:00;;;;;;;7.97;4.05;;;;;;;;;;4993445;28;20030;-69
2021/08/19 08:15:27;;;;;;;8.82;4.35;;;;;;;;;;4975511;28;20153;-69
2021/08/19 08:17:53;;;;;;;12.68;4.72;;;;;;;;;;4993447;28;20479;-70
2021/08/19 08:20:19;;;;;;;9.85;4.95;;;;;;;;;;4997411;28;20490;-71
2021/08/19 08:22:48;;;;;;;11.85;4.68;;;;;;;;;;4997357;28;20390;-70
2021/08/19 08:25:15;;;;;;;12.82;4.72;;;;;;;;;;4997303;28;20370;-69
2021/08/19 08:27:52;;;;;;;8.57;4.32;;;;;;;;;;4979766;28;20050;-66
2021/08/19 08:30:19;;;;;;;8.82;4.93;;;;;;;;;;4997100;28;20050;-65
2021/08/19 08:32:45;;;;;;;11.13;4.13;;;;;;;;;;4997080;28;20030;-72
2021/08/19 08:35:12;;;;;;;7.47;3.70;;;;;;;;;;4996656;28;20021;-70
2021/08/19 08:37:38;;;;;;;10.77;3.83;;;;;;;;;;4997059;28;20031;-70
2021/08/19 08:40:05;;;;;;;8.85;4.35;;;;;;;;;;4996931;28;20475;-69
2021/08/19 08:42:31;;;;;;;8.80;4.80;;;;;;;;;;4996776;28;20125;-69
2021/08/19 08:44:58;;;;;;;6.80;4.28;;;;;;;;;;4996956;28;20030;-70
2021/08/19 08:47:25;;;;;;;7.63;3.13;;;;;;;;;;4996947;28;20015;-69
2021/08/19 08:49:52;;;;;;;5.00;2.00;;;;;;;;;;4996889;28;20026;-71
2021/08/19 08:52:18;;;;;;;6.57;2.58;;;;;;;;;;4996683;28;20037;-73
2021/08/19 08:54:44;;;;;;;4.85;2.35;;;;;;;;;;4978787;28;20022;-71
2021/08/19 08:57:10;;;;;;;3.70;3.10;;;;;;;;;;4996708;28;20026;-71
2021/08/19 08:59:37;;;;;;;5.22;2.88;;;;;;;;;;4979196;28;20482;-71
2021/08/19 09:02:03;;;;;;;6.47;2.92;;;;;;;;;;4996209;28;20430;-69
2021/08/19 09:04:29;;;;;;;9.00;2.90;;;;;;;;;;4996243;28;20562;-70
2021/08/19 09:06:59;;;;;;;10.50;3.83;;;;;;;;;;4978577;28;20032;-68
2021/08/19 09:09:26;;;;;;;7.57;3.75;;;;;;;;;;4996161;28;20014;-69
2021/08/19 09:11:57;;;;;;;3.72;2.80;;;;;;;;;;4994367;28;20023;-71
2021/08/19 09:14:25;;;;;;;3.33;2.40;;;;;;;;;;4995712;28;20061;-73
2021/08/19 09:16:51;;;;;;;6.05;3.55;;;;;;;;;;4978833;28;20608;-70
2021/08/19 09:19:20;;;;;;;4.57;3.20;;;;;;;;;;4978604;28;20134;-71
2021/08/19 09:21:54;;;;;;;8.80;3.05;;;;;;;;;;4978698;28;20471;-70
2021/08/19 09:24:21;;;;;;;6.85;3.60;;;;;;;;;;4996013;28;20822;-71
2021/08/19 09:26:48;;;;;;;3.53;2.60;;;;;;;;;;4996121;28;20022;-69
2021/08/19 09:29:17;;;;;;;9.63;2.80;;;;;;;;;;4995499;28;20058;-71
2021/08/19 09:31:43;;;;;;;6.47;2.70;;;;;;;;;;4994321;28;20133;-70
2021/08/19 09:34:09;;;;;;;7.82;2.85;;;;;;;;;;4977872;28;20076;-71
2021/08/19 09:36:36;;;;;;;5.05;2.50;;;;;;;;;;4978076;28;20018;-71
2021/08/19 09:39:04;;;;;;;7.20;2.83;;;;;;;;;;4994669;28;20030;-70
2021/08/19 09:41:31;;;;;;;3.72;2.92;;;;;;;;;;4995839;28;20030;-71
2021/08/19 09:43:59;;;;;;;4.65;2.55;;;;;;;;;;4978415;28;20109;-69
2021/08/19 09:46:38;;;;;;;5.97;2.58;;;;;;;;;;4995664;28;20549;-70
2021/08/19 09:49:22;;;;;;;3.22;2.30;;;;;;;;;;4978197;28;20026;-70
2021/08/19 09:52:02;;;;;;;3.10;1.98;;;;;;;;;;4995602;28;20037;-70
2021/08/19 09:54:29;;;;;;;4.18;1.75;;;;;;;;;;4995681;28;20077;-69
2021/08/19 09:56:55;;;;;;;4.78;2.08;;;;;;;;;;4995579;28;20101;-71
2021/08/19 09:59:26;;;;;;;6.47;2.20;;;;;;;;;;4995530;28;20069;-71
2021/08/19 10:01:54;;;;;;;3.80;2.10;;;29.00;52.00;;;;;;4995568;28;20031;-69
2021/08/19 10:04:26;;;;;;;2.08;1.88;;;28.90;52.80;;;;;;4977999;28;20030;-72
2021/08/19 10:06:56;;;;;;;19.05;2.40;;;28.60;51.80;;;;;;4995426;28;20081;-72
2021/08/19 10:09:23;;;;;;;3.00;1.83;;;;;;;;;;4995344;28;20023;-71
2021/08/19 10:11:50;;;;;;;3.67;1.90;;;;;;;;;;4995345;28;20190;-71
2021/08/19 10:14:17;;;;;;;3.40;1.77;;;;;;;;;;4995278;28;20106;-71
2021/08/19 10:16:44;;;;;;;6.05;1.95;;;;;;;;;;4995207;28;20033;-71
2021/08/19 10:19:12;;;;;;;3.03;1.73;;;;;;;;;;4977752;28;20034;-71
2021/08/19 10:21:41;;;;;;;1.77;1.42;;;;;;;;;;4997833;28;20061;-69
2021/08/19 10:24:07;;;;;;;2.67;1.88;;;;;;;;;;5014766;28;20026;-70
2021/08/19 10:26:34;;;;;;;2.88;1.70;;;;;;;;;;5008318;28;20026;-73
2021/08/19 10:29:00;;;;;;;2.70;1.60;;;28.60;53.70;;;;;;4994471;28;20054;-72
2021/08/19 10:31:43;;;;;;;2.53;1.98;;;30.50;49.30;;;;;;4994304;28;20129;-69
2021/08/19 10:34:39;;;;;;;1.92;1.42;;;31.00;48.50;;;;;;4994644;28;20108;-69
2021/08/19 10:37:04;;;;;;;1.90;1.63;;;31.30;48.90;;;;;;4994439;28;20794;-70
2021/08/19 10:39:31;;;;;;;2.72;2.00;;;32.10;47.60;;;;;;4994736;28;20045;-71
2021/08/19 10:41:58;;;;;;;2.08;1.75;;;32.60;46.30;;;;;;4994681;28;20430;-70
2021/08/19 10:44:44;;;;;;;5.45;1.98;;;33.40;46.10;;;;;;4994697;28;20030;-70
2021/08/19 10:47:31;;;;;;;4.50;1.85;;;;;;;;;;4977253;28;20089;-69
2021/08/19 10:50:17;;;;;;;2.55;1.55;;;;;;;;;;4994763;28;20022;-71
2021/08/19 10:52:47;;;;;;;5.05;2.05;;;;;;;;;;4976812;28;20034;-74
2021/08/19 10:55:14;;;;;;;8.18;1.98;;;;;;;;;;4977116;28;20022;-74
2021/08/19 10:57:47;;;;;;;2.92;1.83;;;;;;;;;;4994473;28;20029;-72
2021/08/19 11:00:14;;;;;;;3.45;1.80;;;;;;;;;;4976860;28;20122;-73
2021/08/19 11:02:54;;;;;;;3.08;2.10;;;;;;;;;;4993584;28;20462;-73
2021/08/19 11:05:26;;;;;;;1.93;1.57;;;;;;;;;;4976980;28;20418;-72
2021/08/19 11:07:53;;;;;;;3.45;1.40;;;;;;;;;;4976287;28;20030;-73
2021/08/19 11:10:26;;;;;;;2.75;1.77;;;34.10;45.50;;;;;;4994099;28;20058;-73
2021/08/19 11:12:53;;;;;;;1.80;1.60;;;38.10;39.10;;;;;;4993109;28;20145;-73
2021/08/19 11:15:19;;;;;;;2.58;1.70;;;37.90;39.20;;;;;;4993406;28;20035;-74
2021/08/19 11:17:57;;;;;;;2.60;1.65;;;38.40;38.00;;;;;;4993800;28;20101;-74
2021/08/19 11:20:29;;;;;;;10.82;1.85;;;39.00;38.00;;;;;;4994119;28;20026;-74
2021/08/19 11:23:06;;;;;;;1.70;1.30;;;39.30;38.40;;;;;;4993954;28;20054;-72
2021/08/19 11:25:36;;;;;;;3.05;1.13;;;39.50;37.10;;;;;;4993743;28;20106;-74
2021/08/19 11:28:16;;;;;;;2.60;1.35;;;39.10;37.50;;;;;;4994258;28;20030;-74
2021/08/19 11:30:50;;;;;;;3.10;1.60;;;39.50;35.90;;;;;;4973009;28;20522;-74
2021/08/19 11:33:18;;;;;;;2.55;1.65;;;40.30;36.20;;;;;;4983694;28;20427;-75
2021/08/19 11:35:58;;;;;;;1.20;1.20;;;40.30;36.10;;;;;;4976723;28;20027;-69
2021/08/19 11:38:25;;;;;;;1.65;1.50;;;40.70;35.30;;;;;;4973210;28;20031;-72
2021/08/19 11:40:54;;;;;;;2.28;1.40;;;39.80;35.90;;;;;;4973103;28;20034;-71
2021/08/19 11:43:27;;;;;;;3.83;1.40;;;40.60;35.70;;;;;;4974401;28;20117;-73
2021/08/19 11:46:02;;;;;;;2.53;1.17;;;41.30;35.30;;;;;;4973156;28;20070;-73
2021/08/19 11:48:29;;;;;;;1.63;1.45;;;41.60;34.90;;;;;;4982374;28;20030;-70
2021/08/19 11:50:57;;;;;;;6.60;1.70;;;41.50;35.30;;;;;;4993848;28;20061;-71
2021/08/19 11:53:23;;;;;;;2.55;1.42;;;41.90;35.40;;;;;;4992911;28;20475;-72
2021/08/19 11:55:50;;;;;;;7.35;1.60;;;;;;;;;;4993704;28;20031;-74
2021/08/19 11:58:24;;;;;;;5.53;1.55;;;42.00;35.00;;;;;;4992298;28;20136;-72
2021/08/19 12:01:02;;;;;;;3.03;1.63;;;40.90;34.50;;;;;;4992356;28;20169;-72
2021/08/19 12:03:28;;;;;;;2.00;1.60;;;41.00;35.90;;;;;;4992349;28;20030;-71
2021/08/19 12:06:11;;;;;;;2.70;1.30;;;41.00;34.70;;;;;;4993874;28;20034;-71
2021/08/19 12:08:46;;;;;;;1.65;1.17;;;41.50;34.80;;;;;;4993673;28;20026;-72
2021/08/19 12:11:21;;;;;;;3.45;1.00;;;41.40;34.50;;;;;;4993596;28;20122;-73
2021/08/19 12:13:50;;;;;;;2.08;1.42;;;41.10;34.50;;;;;;4993626;28;20041;-72
2021/08/19 12:16:21;;;;;;;1.98;1.38;;;40.50;34.60;;;;;;4993489;28;20027;-72
2021/08/19 12:19:09;;;;;;;2.30;1.08;;;40.70;34.30;;;;;;4993478;28;20494;-71
2021/08/19 12:21:37;;;;;;;1.40;1.30;;;41.30;35.40;;;;;;4992172;28;20121;-71
2021/08/19 12:24:19;;;;;;;1.52;1.40;;;41.10;35.10;;;;;;4993501;28;20058;-72
2021/08/19 12:27:11;;;;;;;3.72;1.67;;;41.70;34.40;;;;;;4993167;28;20066;-73
2021/08/19 12:29:53;;;;;;;4.10;1.60;;;42.10;35.00;;;;;;4993453;28;20053;-73
2021/08/19 12:32:30;;;;;;;16.63;1.67;;;42.90;34.30;;;;;;4973892;28;20097;-72
2021/08/19 12:35:22;;;;;;;3.10;1.73;;;42.70;34.40;;;;;;4973998;28;20023;-73
2021/08/19 12:37:55;;;;;;;1.65;1.40;;;42.30;34.70;;;;;;4973882;28;20026;-69
2021/08/19 12:40:28;;;;;;;5.65;1.30;;;42.20;34.50;;;;;;4973836;28;20031;-70
2021/08/19 12:43:07;;;;;;;3.35;1.48;;;43.00;33.30;;;;;;4956553;28;20027;-73
2021/08/19 12:45:33;;;;;;;1.45;1.20;;;42.70;33.70;;;;;;4973520;28;20027;-69
2021/08/19 12:48:07;;;;;;;2.15;1.45;;;42.20;33.60;;;;;;4973739;28;20371;-71
2021/08/19 12:50:34;;;;;;;3.15;1.35;;;42.50;33.20;;;;;;4956335;28;20035;-67
2021/08/19 12:53:15;;;;;;;2.42;1.23;;;43.00;33.50;;;;;;4973430;28;20387;-68
2021/08/19 12:55:41;;;;;;;;;;;44.30;33.10;;;;;;4974001;28;20028;-71
2021/08/19 12:58:07;;;;;;;1.33;1.23;;;44.40;32.20;;;;;;4973158;28;19965;-69
2021/08/19 13:00:36;;;;;;;1.33;1.20;;;44.20;31.60;;;;;;4956288;28;20063;-68
2021/08/19 13:03:06;;;;;;;1.92;1.10;;;44.30;32.00;;;;;;4973198;28;20043;-68
2021/08/19 13:05:34;;;;;;;4.53;1.20;;;44.10;31.60;;;;;;4974991;28;20033;-72
2021/08/19 13:08:02;;;;;;;1.95;1.10;;;44.50;31.60;;;;;;4959778;28;20398;-70
2021/08/19 13:10:28;;;;;;;5.63;1.63;;;44.80;31.80;;;;;;4976969;28;20387;-73
2021/08/19 13:12:54;;;;;;;1.42;1.30;;;45.80;31.50;;;;;;4976587;28;20035;-71
2021/08/19 13:15:21;;;;;;;2.88;1.38;;;45.50;31.30;;;;;;4959242;28;20126;-69
2021/08/19 13:17:47;;;;;;;3.03;1.27;;;45.50;31.80;;;;;;4976546;28;20055;-67
2021/08/19 13:20:14;;;;;;;7.95;1.48;;;46.00;31.80;;;;;;4976915;28;20027;-67
2021/08/19 13:22:40;;;;;;;8.98;1.65;;;45.50;31.30;;;;;;4959451;28;20038;-68
2021/08/19 13:25:07;;;;;;;4.85;1.77;;;44.30;32.00;;;;;;4976760;28;20030;-67
2021/08/19 13:27:33;;;;;;;1.52;1.27;;;44.60;32.10;;;;;;4959267;28;20027;-72
2021/08/19 13:29:59;;;;;;;3.42;1.40;;;44.80;32.20;;;;;;4979282;28;20053;-71
2021/08/19 13:32:26;;;;;;;3.35;1.35;;;45.10;32.10;;;;;;4978783;28;20031;-69
2021/08/19 13:34:52;;;;;;;1.55;1.45;;;44.20;31.40;;;;;;4996025;28;20105;-71
2021/08/19 13:37:19;;;;;;;4.00;1.25;;;43.90;31.00;;;;;;4978176;28;20031;-70
2021/08/19 13:39:45;;;;;;;3.00;1.38;;;43.70;31.70;;;;;;4978352;28;20022;-71
2021/08/19 13:42:12;;;;;;;3.90;1.10;;;43.90;32.50;;;;;;4995600;28;20030;-70
2021/08/19 13:44:38;;;;;;;5.20;0.90;;;45.20;31.80;;;;;;4996098;28;20084;-70
2021/08/19 13:47:08;;;;;;;5.88;1.25;;;45.50;31.10;;;;;;4995803;28;20525;-75
2021/08/19 13:49:35;;;;;;;3.70;1.38;;;45.30;31.10;;;;;;4995737;28;20029;-73
2021/08/19 13:52:01;;;;;;;4.03;1.40;;;45.90;31.00;;;;;;4995675;28;20034;-75
2021/08/19 13:54:27;;;;;;;2.08;1.30;;;47.00;31.30;;;;;;4995411;28;20399;-74
2021/08/19 13:56:55;;;;;;;2.25;1.10;;;47.70;30.80;;;;;;4978059;28;20030;-71
2021/08/19 13:59:21;;;;;;;2.65;1.30;;;47.30;31.10;;;;;;4977959;28;20061;-70
2021/08/19 14:01:47;;;;;;;2.95;1.42;;;47.10;31.40;;;;;;4977954;28;20038;-75
2021/08/19 14:04:14;;;;;;;2.30;1.30;;;48.00;31.30;;;;;;4995564;28;20034;-73
2021/08/19 14:06:40;;;;;;;5.63;1.60;;;47.70;30.40;;;;;;4995866;28;20031;-72
2021/08/19 14:09:06;;;;;;;1.45;1.23;;;46.80;30.00;;;;;;4995455;28;20026;-72
2021/08/19 14:11:32;;;;;;;4.25;1.40;;;46.70;30.20;;;;;;4995333;28;20049;-72